createdAt,value
2022-11-28T00:03:19.091Z,18.50
2022-11-28T00:07:36.623Z,14.73
2022-11-28T00:11:54.030Z,16.07
2022-11-28T00:16:15.928Z,29.27
2022-11-28T00:20:33.352Z,28.35
2022-11-28T00:24:50.501Z,23.17
2022-11-28T00:29:09.201Z,20.75
2022-11-28T00:33:26.767Z,21.48
2022-11-28T00:37:44.012Z,17.50
2022-11-28T00:42:01.221Z,13.60
2022-11-28T00:46:19.981Z,16.35
2022-11-28T00:50:37.248Z,18.20
2022-11-28T00:54:54.633Z,17.25
2022-11-28T00:59:11.953Z,15.20
2022-11-28T01:03:29.146Z,19.13
2022-11-28T01:07:46.362Z,20.20
2022-11-28T01:12:03.742Z,17.92
2022-11-28T01:16:21.036Z,17.70
2022-11-28T01:20:38.332Z,14.57
2022-11-28T01:24:55.547Z,15.35
2022-11-28T01:29:13.057Z,14.18
2022-11-28T01:33:30.570Z,15.80
2022-11-28T01:37:47.745Z,15.63
2022-11-28T01:42:05.000Z,15.75
2022-11-28T01:46:22.216Z,15.55
2022-11-28T01:50:41.805Z,14.65
2022-11-28T01:55:01.231Z,14.82
2022-11-28T01:59:20.449Z,14.68
2022-11-28T02:03:46.018Z,14.23
2022-11-28T02:08:03.676Z,14.98
2022-11-28T02:12:39.294Z,12.95
2022-11-28T02:17:28.494Z,12.35
2022-11-28T02:22:20.098Z,13.32
2022-11-28T02:26:55.704Z,13.43
2022-11-28T02:31:25.180Z,12.50
2022-11-28T02:35:54.649Z,13.90
2022-11-28T02:40:27.721Z,13.05
2022-11-28T02:44:54.646Z,13.55
2022-11-28T02:49:35.938Z,12.57
2022-11-28T02:53:55.116Z,12.80
2022-11-28T02:58:12.657Z,12.18
2022-11-28T03:02:32.698Z,11.90
2022-11-28T03:06:59.917Z,13.40
2022-11-28T03:12:02.701Z,12.90
2022-11-28T03:16:28.589Z,13.20
2022-11-28T03:20:51.601Z,13.68
2022-11-28T03:25:25.073Z,12.80
2022-11-28T03:29:48.722Z,11.93
2022-11-28T03:34:08.492Z,14.23
2022-11-28T03:38:31.848Z,12.70
2022-11-28T03:42:58.382Z,12.57
2022-11-28T03:47:15.857Z,13.52
2022-11-28T03:51:49.685Z,11.60
2022-11-28T03:56:25.092Z,12.27
2022-11-28T04:00:52.530Z,11.82
2022-11-28T04:05:32.298Z,12.27
2022-11-28T04:09:56.262Z,17.58
2022-11-28T04:14:40.443Z,26.88
2022-11-28T04:19:07.557Z,27.30
2022-11-28T04:23:26.149Z,26.40
2022-11-28T04:27:49.656Z,27.25
2022-11-28T04:32:09.481Z,25.35
2022-11-28T04:36:28.368Z,27.27
2022-11-28T04:40:53.597Z,22.48
2022-11-28T04:45:42.289Z,21.27
2022-11-28T04:49:59.846Z,32.20
2022-11-28T04:54:31.421Z,27.45
2022-11-28T04:58:50.813Z,18.40
2022-11-28T05:03:09.733Z,19.23
2022-11-28T05:07:27.005Z,18.73
2022-11-28T05:11:44.320Z,17.13
2022-11-28T05:16:03.548Z,19.27
2022-11-28T05:20:20.920Z,28.65
2022-11-28T05:24:38.147Z,26.08
2022-11-28T05:28:56.992Z,21.75
2022-11-28T05:33:14.191Z,20.88
2022-11-28T05:37:31.619Z,15.00
2022-11-28T05:41:48.959Z,14.32
2022-11-28T05:46:06.815Z,7.78
2022-11-28T05:50:24.115Z,10.45
2022-11-28T05:54:41.679Z,9.82
2022-11-28T05:58:58.970Z,6.30
2022-11-28T06:03:16.264Z,4.32
2022-11-28T06:07:33.642Z,5.22
2022-11-28T06:11:50.840Z,5.47
2022-11-28T06:16:16.588Z,5.40
2022-11-28T06:20:35.777Z,5.15
2022-11-28T06:24:53.079Z,4.82
2022-11-28T06:29:10.372Z,5.07
2022-11-28T06:33:28.051Z,4.10
2022-11-28T06:37:45.224Z,8.93
2022-11-28T06:42:03.035Z,8.40
2022-11-28T06:46:21.848Z,7.25
2022-11-28T06:50:39.142Z,8.05
2022-11-28T06:54:56.335Z,9.02
2022-11-28T06:59:13.704Z,9.75
2022-11-28T07:03:31.004Z,8.90
2022-11-28T07:07:54.220Z,9.40
2022-11-28T07:12:11.732Z,8.77
2022-11-28T07:16:31.464Z,8.65
2022-11-28T07:20:49.509Z,8.35
2022-11-28T07:25:07.337Z,8.98
2022-11-28T07:29:24.664Z,9.93
2022-11-28T07:33:44.764Z,10.13
2022-11-28T07:38:01.976Z,9.27
2022-11-28T07:42:19.306Z,8.75
2022-11-28T07:46:36.625Z,8.25
2022-11-28T07:50:53.874Z,8.40
2022-11-28T07:55:11.128Z,8.75
2022-11-28T07:59:28.374Z,9.23
2022-11-28T08:03:46.741Z,9.55
2022-11-28T08:08:04.225Z,9.43
2022-11-28T08:12:21.440Z,10.10
2022-11-28T08:16:41.268Z,9.27
2022-11-28T08:21:09.660Z,8.73
2022-11-28T08:25:27.019Z,14.13
2022-11-28T08:29:46.165Z,11.68
2022-11-28T08:34:09.365Z,10.57
2022-11-28T08:38:26.621Z,9.43
2022-11-28T08:42:43.812Z,10.63
2022-11-28T08:47:01.021Z,11.30
2022-11-28T08:51:23.716Z,11.25
2022-11-28T08:55:42.066Z,14.27
2022-11-28T08:59:59.390Z,13.77
2022-11-28T09:04:16.713Z,13.15
2022-11-28T09:08:34.115Z,9.23
2022-11-28T09:12:51.874Z,9.32
2022-11-28T09:17:09.218Z,9.37
2022-11-28T09:21:26.934Z,11.73
2022-11-28T09:25:44.096Z,13.18
2022-11-28T09:30:01.634Z,11.30
2022-11-28T09:34:18.868Z,10.75
2022-11-28T09:38:36.848Z,13.77
2022-11-28T09:42:54.141Z,15.37
2022-11-28T09:47:26.759Z,14.48
2022-11-28T09:52:00.467Z,21.13
2022-11-28T09:56:22.245Z,25.15
2022-11-28T10:00:47.236Z,27.13
2022-11-28T10:05:06.972Z,21.88
2022-11-28T10:09:37.397Z,16.60
2022-11-28T10:14:28.110Z,12.45
2022-11-28T10:18:52.296Z,10.80
2022-11-28T10:23:21.872Z,10.13
2022-11-28T10:27:40.517Z,12.48
2022-11-28T10:36:32.041Z,7.47
2022-11-28T10:41:01.781Z,7.35
2022-11-28T10:45:36.737Z,6.60
2022-11-28T10:50:06.938Z,5.95
2022-11-28T10:54:42.873Z,6.90
2022-11-28T10:59:36.023Z,6.75
2022-11-28T11:03:53.274Z,7.40
2022-11-28T11:08:21.004Z,7.63
2022-11-28T11:12:38.695Z,8.55
2022-11-28T11:16:59.276Z,8.52
2022-11-28T11:21:21.135Z,8.48
2022-11-28T11:25:46.785Z,8.82
2022-11-28T11:30:34.271Z,8.70
2022-11-28T11:34:51.839Z,8.52
2022-11-28T11:39:12.388Z,8.18
2022-11-28T11:43:32.019Z,9.48
2022-11-28T11:47:49.200Z,9.10
2022-11-28T11:52:15.230Z,9.30
2022-11-28T11:56:37.739Z,8.70
2022-11-28T12:00:57.350Z,8.95
2022-11-28T12:05:41.730Z,10.30
2022-11-28T12:10:15.285Z,10.70
2022-11-28T12:14:35.103Z,10.98
2022-11-28T12:19:14.612Z,11.23
2022-11-28T12:28:53.800Z,10.98
2022-11-28T12:33:16.890Z,12.77
2022-11-28T12:38:09.862Z,13.18
2022-11-28T12:42:27.232Z,12.00
2022-11-28T12:46:53.155Z,12.02
2022-11-28T12:51:37.079Z,10.75
2022-11-28T12:56:06.089Z,10.48
2022-11-28T13:05:05.253Z,9.70
2022-11-28T13:09:33.709Z,10.18
2022-11-28T13:14:18.388Z,10.60
2022-11-28T13:19:02.301Z,10.60
2022-11-28T13:23:29.139Z,11.50
2022-11-28T13:27:49.320Z,10.13
2022-11-28T13:32:18.397Z,10.88
2022-11-28T13:46:10.231Z,11.93
2022-11-28T13:50:35.999Z,11.18
2022-11-28T13:54:54.887Z,11.00
2022-11-28T13:59:31.241Z,11.18
2022-11-28T14:04:02.576Z,11.60
2022-11-28T14:08:35.617Z,11.20
2022-11-28T14:13:12.055Z,12.98
2022-11-28T14:17:44.470Z,11.70
2022-11-28T14:22:07.492Z,11.27
2022-11-28T14:26:36.976Z,11.80
2022-11-28T14:31:12.784Z,12.38
2022-11-28T14:35:54.801Z,13.07
2022-11-28T14:40:49.242Z,12.25
2022-11-28T14:45:41.735Z,10.95
2022-11-28T14:50:20.695Z,12.15
2022-11-28T14:54:43.297Z,14.65
2022-11-28T14:59:03.410Z,12.77
2022-11-28T15:03:40.564Z,12.18
2022-11-28T15:08:21.333Z,11.75
2022-11-28T15:12:51.872Z,11.98
2022-11-28T15:17:13.918Z,12.05
2022-11-28T15:21:33.174Z,12.35
2022-11-28T15:25:55.355Z,13.23
2022-11-28T15:30:21.702Z,15.70
2022-11-28T15:34:39.190Z,14.02
2022-11-28T15:38:57.294Z,14.18
2022-11-28T15:43:14.834Z,13.77
2022-11-28T15:47:32.534Z,15.85
2022-11-28T15:51:55.217Z,13.43
2022-11-28T15:56:15.953Z,13.95
2022-11-28T16:00:33.257Z,16.48
2022-11-28T16:04:54.944Z,14.35
2022-11-28T16:09:17.910Z,15.10
2022-11-28T16:13:38.493Z,15.27
2022-11-28T16:17:56.315Z,14.35
2022-11-28T16:22:27.105Z,15.20
2022-11-28T16:26:55.073Z,14.38
2022-11-28T16:31:13.683Z,13.48
2022-11-28T16:35:40.418Z,14.23
2022-11-28T16:40:06.324Z,13.52
2022-11-28T16:44:24.877Z,14.25
2022-11-28T16:53:05.424Z,11.25
2022-11-28T16:57:26.545Z,12.20
2022-11-28T17:01:51.810Z,11.25
2022-11-28T17:06:23.866Z,10.27
2022-11-28T17:10:41.096Z,10.75
2022-11-28T17:14:58.682Z,11.00
2022-11-28T17:19:16.325Z,10.90
2022-11-28T17:23:33.500Z,11.77
2022-11-28T17:27:52.585Z,13.88
2022-11-28T17:32:14.495Z,20.27
2022-11-28T17:36:31.735Z,11.27
2022-11-28T17:40:49.083Z,10.30
2022-11-28T17:45:15.341Z,10.20
2022-11-28T17:49:32.621Z,10.25
2022-11-28T17:53:50.643Z,11.93
2022-11-28T17:58:16.785Z,11.55
2022-11-28T18:02:34.336Z,18.38
2022-11-28T18:06:51.655Z,11.98
2022-11-28T18:11:11.426Z,11.18
2022-11-28T18:15:29.163Z,11.70
2022-11-28T18:19:46.540Z,14.70
2022-11-28T18:24:04.687Z,13.15
2022-11-28T18:28:22.063Z,12.93
2022-11-28T18:32:39.605Z,12.55
2022-11-28T18:37:00.710Z,12.05
2022-11-28T18:41:18.093Z,10.65
2022-11-28T18:45:35.430Z,9.85
2022-11-28T18:49:52.646Z,10.38
2022-11-28T18:54:09.914Z,11.55
2022-11-28T18:58:27.142Z,11.15
2022-11-28T19:02:44.324Z,11.50
2022-11-28T19:07:02.505Z,11.20
2022-11-28T19:11:20.070Z,10.40
2022-11-28T19:15:40.958Z,11.25
2022-11-28T19:19:58.190Z,11.80
2022-11-28T19:24:15.432Z,12.55
2022-11-28T19:28:34.099Z,11.45
2022-11-28T19:32:51.272Z,11.20
2022-11-28T19:37:08.477Z,11.50
2022-11-28T19:41:27.241Z,11.57
2022-11-28T19:45:44.460Z,10.60
2022-11-28T19:50:01.784Z,11.35
2022-11-28T19:54:22.283Z,11.30
2022-11-28T19:58:40.251Z,12.23
2022-11-28T20:02:57.560Z,12.63
2022-11-28T20:07:15.741Z,11.95
2022-11-28T20:11:35.442Z,12.98
2022-11-28T20:15:52.609Z,11.98
2022-11-28T20:20:10.400Z,11.57
2022-11-28T20:24:27.686Z,11.03
2022-11-28T20:28:45.637Z,11.90
2022-11-28T20:33:02.902Z,11.15
2022-11-28T20:37:20.329Z,11.60
2022-11-28T20:41:37.599Z,11.43
2022-11-28T20:45:55.690Z,11.95
2022-11-28T20:50:12.912Z,11.82
2022-11-28T20:54:30.178Z,11.60
2022-11-28T20:58:47.545Z,11.95
2022-11-28T21:03:04.753Z,12.70
2022-11-28T21:07:22.857Z,13.02
2022-11-28T21:16:22.935Z,17.33
2022-11-28T21:20:43.024Z,16.90
2022-11-28T21:25:00.321Z,16.15
2022-11-28T21:29:17.626Z,18.48
2022-11-28T21:33:35.183Z,18.83
2022-11-28T21:37:52.404Z,17.85
2022-11-28T21:42:09.611Z,18.45
2022-11-28T21:46:27.349Z,17.23
2022-11-28T21:50:51.344Z,18.63
2022-11-28T21:55:08.716Z,20.17
2022-11-28T21:59:25.876Z,17.85
2022-11-28T22:03:43.982Z,17.85
2022-11-28T22:08:01.729Z,17.23
2022-11-28T22:12:18.979Z,17.30
2022-11-28T22:16:36.237Z,17.98
2022-11-28T22:21:01.793Z,18.77
2022-11-28T22:25:19.027Z,19.05
2022-11-28T22:29:36.325Z,19.77
2022-11-28T22:33:53.542Z,20.08
2022-11-28T22:38:11.147Z,21.50
2022-11-28T22:42:28.368Z,22.05
2022-11-28T22:46:45.610Z,23.13
2022-11-28T22:51:10.997Z,22.52
2022-11-28T22:55:28.370Z,21.88
2022-11-28T22:59:45.620Z,23.77
2022-11-28T23:04:03.474Z,23.08
2022-11-28T23:08:20.676Z,23.63
2022-11-28T23:12:38.109Z,26.55
2022-11-28T23:16:55.328Z,28.95
2022-11-28T23:21:13.562Z,24.77
2022-11-28T23:25:30.842Z,25.50
2022-11-28T23:29:48.114Z,26.17
2022-11-28T23:34:06.487Z,26.42
2022-11-28T23:38:23.678Z,24.13
2022-11-28T23:42:41.725Z,27.50
2022-11-28T23:46:59.005Z,25.85
2022-11-28T23:51:18.257Z,25.33
2022-11-28T23:55:35.484Z,25.85
2022-11-28T23:59:52.783Z,23.83
